Decoded Metar for KSXS (FT RUCKER/SHELL in AL, USA) (IATA:SXS) | Meteo·Mobile Aviation Weather
aviador You're here:

KSXS Decoded Metar

FT RUCKER/SHELL in AL, USA
Report Time2018-11-19 02:32:00
UTC Time2018-11-19 02:51:24
Flight Rules vfr VFR
WindCalm
Visibility9999 m
Phenomena:N/A
Clouds:N/A
Expected CloudBase > 400 ft AGL from Temp-Dew spread
CeilingNone
Temp10°C (ISA -4)
Dew Point09°C (94% RH)
AAT9.8°C
QNH1021 hPa
Density Alt-217 ft
Elevation400 ft
Report Wrong Elevation
Raw Report
KSXS 190232Z AUTO 00000KT 9SM CLR 10/09 A3016 RMK AO2 SLP215=

Extra information for KSXS:More info

Metar Taf Metar & Taf Last 4 Metars F.Rules Stats Wind Profile Meteogram Temp Stats Airport Information Weather charts Add Link Nearby VenuesMetar ALERT Operation Metar Decoded Social comments

AIRNAV info for KSXS